PWSweather.com
Personal Weather Stations
Station Observations
METEOC500
Santo Antonio, FunchalPT 2020

Santo AntonioFunchalPT 2020

Lat: 32.678227, Lon: -16.945054

Elevation: 1669.94751

Station Type: WH Series

High Low Average
Temperature 72.9°F22.7°C 61.7°F16.5°C 66.0°F18.9°C
Dew Point 62.6°F17.0°C 55.6°F13.1°C 59.6°F15.3°C
Winds 11.0 mph 17.7 kmh Calm Calm 3.0 mph SW4.8 kmh SW
Wind Gusts 15.0 mph24.1 kmh 2.5 mph4.0 kmh 8.0 mph12.9 kmh
Humidity 86% 64% 80%
Pressure 30.14 in1020.7 mb 30.09 in1019.0 mb -
Precipitation 0.00 in0.0 mm - -
Hour Temp Dew Point Humidity Winds Wind Gusts Pressure Precip Precip Rate Daily Precip Total
12:09 AM 63.9°F17.7°C 59.5°F15.3°C 86% 5.6 mph NNW9.0 kmh NNW 7.6 mph12.2 kmh 30.14 in1020.7 mb 0.00 in0.0 mm 0.00 in0.0 mm 0.00 in0.0 mm
12:24 AM 63.7°F17.6°C 59.4°F15.2°C 86% 3.8 mph NNW6.1 kmh NNW 10.1 mph16.3 kmh 30.13 in1020.3 mb 0.00 in0.0 mm 0.00 in0.0 mm 0.00 in0.0 mm
12:39 AM 63.7°F17.6°C 59.4°F15.2°C 86% 3.8 mph N6.1 kmh N 7.6 mph12.2 kmh 30.13 in1020.3 mb 0.00 in0.0 mm 0.00 in0.0 mm 0.00 in0.0 mm
12:54 AM 63.5°F17.5°C 58.8°F14.9°C 85% 4.9 mph N7.9 kmh N 7.6 mph12.2 kmh 30.13 in1020.3 mb 0.00 in0.0 mm 0.00 in0.0 mm 0.00 in0.0 mm
01:09 AM 63.3°F17.4°C 58.1°F14.5°C 83% 6.3 mph NNW10.1 kmh NNW 12.5 mph20.1 kmh 30.12 in1020.0 mb 0.00 in0.0 mm 0.00 in0.0 mm 0.00 in0.0 mm
01:24 AM 63.0°F17.2°C 57.4°F14.1°C 82% 4.7 mph NNW7.6 kmh NNW 10.1 mph16.3 kmh 30.12 in1020.0 mb 0.00 in0.0 mm 0.00 in0.0 mm 0.00 in0.0 mm
01:39 AM 63.3°F17.4°C 56.7°F13.7°C 79% 5.6 mph NNW9.0 kmh NNW 10.1 mph16.3 kmh 30.12 in1020.0 mb 0.00 in0.0 mm 0.00 in0.0 mm 0.00 in0.0 mm
01:54 AM 63.9°F17.7°C 57.9°F14.4°C 81% 4.5 mph N7.2 kmh N 10.1 mph16.3 kmh 30.12 in1020.0 mb 0.00 in0.0 mm 0.00 in0.0 mm 0.00 in0.0 mm
02:09 AM 64.2°F17.9°C 58.3°F14.6°C 81% 5.6 mph NNW9.0 kmh NNW 10.1 mph16.3 kmh 30.11 in1019.6 mb 0.00 in0.0 mm 0.00 in0.0 mm 0.00 in0.0 mm
02:24 AM 64.6°F18.1°C 59.4°F15.2°C 83% 3.8 mph NNW6.1 kmh NNW 7.6 mph12.2 kmh 30.11 in1019.6 mb 0.00 in0.0 mm 0.00 in0.0 mm 0.00 in0.0 mm
02:39 AM 64.9°F18.3°C 59.9°F15.5°C 84% 2.9 mph NW4.7 kmh NW 4.9 mph7.9 kmh 30.11 in1019.6 mb 0.00 in0.0 mm 0.00 in0.0 mm 0.00 in0.0 mm
02:54 AM 64.6°F18.1°C 59.7°F15.4°C 84% 2.9 mph NNW4.7 kmh NNW 7.6 mph12.2 kmh 30.11 in1019.6 mb 0.00 in0.0 mm 0.00 in0.0 mm 0.00 in0.0 mm
03:09 AM 64.2°F17.9°C 59.5°F15.3°C 85% 4.7 mph NNW7.6 kmh NNW 7.6 mph12.2 kmh 30.10 in1019.3 mb 0.00 in0.0 mm 0.00 in0.0 mm 0.00 in0.0 mm
03:24 AM 64.2°F17.9°C 59.4°F15.2°C 84% 3.1 mph NNW5.0 kmh NNW 7.6 mph12.2 kmh 30.11 in1019.6 mb 0.00 in0.0 mm 0.00 in0.0 mm 0.00 in0.0 mm
03:39 AM 64.0°F17.8°C 59.4°F15.2°C 85% 4.5 mph NNW7.2 kmh NNW 7.6 mph12.2 kmh 30.10 in1019.3 mb 0.00 in0.0 mm 0.00 in0.0 mm 0.00 in0.0 mm
03:54 AM 63.9°F17.7°C 59.0°F15.0°C 84% 7.2 mph NNW11.6 kmh NNW 10.1 mph16.3 kmh 30.10 in1019.3 mb 0.00 in0.0 mm 0.00 in0.0 mm 0.00 in0.0 mm
04:09 AM 63.7°F17.6°C 58.8°F14.9°C 84% 4.9 mph N7.9 kmh N 10.1 mph16.3 kmh 30.10 in1019.3 mb 0.00 in0.0 mm 0.00 in0.0 mm 0.00 in0.0 mm
04:25 AM 63.5°F17.5°C 58.6°F14.8°C 84% 6.0 mph NNW9.7 kmh NNW 10.1 mph16.3 kmh 30.09 in1019.0 mb 0.00 in0.0 mm 0.00 in0.0 mm 0.00 in0.0 mm
04:40 AM 63.5°F17.5°C 58.8°F14.9°C 85% 3.8 mph NNW6.1 kmh NNW 7.6 mph12.2 kmh 30.09 in1019.0 mb 0.00 in0.0 mm 0.00 in0.0 mm 0.00 in0.0 mm
04:55 AM 63.3°F17.4°C 59.0°F15.0°C 86% 3.1 mph NNW5.0 kmh NNW 7.6 mph12.2 kmh 30.09 in1019.0 mb 0.00 in0.0 mm 0.00 in0.0 mm 0.00 in0.0 mm
05:10 AM 63.1°F17.3°C 58.3°F14.6°C 84% 2.2 mph NNW3.5 kmh NNW 10.1 mph16.3 kmh 30.10 in1019.3 mb 0.00 in0.0 mm 0.00 in0.0 mm 0.00 in0.0 mm
05:25 AM 63.1°F17.3°C 58.3°F14.6°C 84% 3.1 mph NNW5.0 kmh NNW 7.6 mph12.2 kmh 30.09 in1019.0 mb 0.00 in0.0 mm 0.00 in0.0 mm 0.00 in0.0 mm
05:40 AM 63.0°F17.2°C 58.6°F14.8°C 86% 3.8 mph NNW6.1 kmh NNW 7.6 mph12.2 kmh 30.09 in1019.0 mb 0.00 in0.0 mm 0.00 in0.0 mm 0.00 in0.0 mm
05:55 AM 62.8°F17.1°C 58.3°F14.6°C 85% 1.6 mph NNW2.6 kmh NNW 7.6 mph12.2 kmh 30.10 in1019.3 mb 0.00 in0.0 mm 0.00 in0.0 mm 0.00 in0.0 mm
06:10 AM 62.8°F17.1°C 57.9°F14.4°C 84% 4.5 mph NNW7.2 kmh NNW 7.6 mph12.2 kmh 30.10 in1019.3 mb 0.00 in0.0 mm 0.00 in0.0 mm 0.00 in0.0 mm
06:25 AM 62.8°F17.1°C 57.9°F14.4°C 84% 4.0 mph NNW6.4 kmh NNW 10.1 mph16.3 kmh 30.10 in1019.3 mb 0.00 in0.0 mm 0.00 in0.0 mm 0.00 in0.0 mm
06:40 AM 62.4°F16.9°C 57.9°F14.4°C 85% 4.5 mph NNW7.2 kmh NNW 7.6 mph12.2 kmh 30.11 in1019.6 mb 0.00 in0.0 mm 0.00 in0.0 mm 0.00 in0.0 mm
06:55 AM 62.2°F16.8°C 56.7°F13.7°C 82% 4.0 mph N6.4 kmh N 7.6 mph12.2 kmh 30.11 in1019.6 mb 0.00 in0.0 mm 0.00 in0.0 mm 0.00 in0.0 mm
07:10 AM 62.2°F16.8°C 57.4°F14.1°C 84% 4.0 mph NNW6.4 kmh NNW 7.6 mph12.2 kmh 30.11 in1019.6 mb 0.00 in0.0 mm 0.00 in0.0 mm 0.00 in0.0 mm
07:25 AM 62.1°F16.7°C 57.6°F14.2°C 85% 2.5 mph NW4.0 kmh NW 7.6 mph12.2 kmh 30.11 in1019.6 mb 0.00 in0.0 mm 0.00 in0.0 mm 0.00 in0.0 mm
07:40 AM 61.9°F16.6°C 57.0°F13.9°C 84% 4.9 mph NNW7.9 kmh NNW 10.1 mph16.3 kmh 30.11 in1019.6 mb 0.00 in0.0 mm 0.00 in0.0 mm 0.00 in0.0 mm
07:55 AM 61.7°F16.5°C 55.8°F13.2°C 81% 5.6 mph NW9.0 kmh NW 10.1 mph16.3 kmh 30.11 in1019.6 mb 0.00 in0.0 mm 0.00 in0.0 mm 0.00 in0.0 mm
08:10 AM 63.3°F17.4°C 55.6°F13.1°C 76% 1.6 mph NNW2.6 kmh NNW 7.6 mph12.2 kmh 30.11 in1019.6 mb 0.00 in0.0 mm 0.00 in0.0 mm 0.00 in0.0 mm
08:25 AM 65.3°F18.5°C 56.1°F13.4°C 72% 0.9 mph N1.4 kmh N 4.9 mph7.9 kmh 30.11 in1019.6 mb 0.00 in0.0 mm 0.00 in0.0 mm 0.00 in0.0 mm
08:41 AM 67.5°F19.7°C 56.5°F13.6°C 68% 3.1 mph SSE5.0 kmh SSE 7.6 mph12.2 kmh 30.11 in1019.6 mb 0.00 in0.0 mm 0.00 in0.0 mm 0.00 in0.0 mm
08:56 AM 70.0°F21.1°C 57.7°F14.3°C 65% 4.0 mph SE6.4 kmh SE 7.6 mph12.2 kmh 30.11 in1019.6 mb 0.00 in0.0 mm 0.00 in0.0 mm 0.00 in0.0 mm
09:11 AM 70.7°F21.5°C 58.3°F14.6°C 65% 1.6 mph S2.6 kmh S 7.6 mph12.2 kmh 30.12 in1020.0 mb 0.00 in0.0 mm 0.00 in0.0 mm 0.00 in0.0 mm
09:26 AM 71.1°F21.7°C 58.3°F14.6°C 64% 4.5 mph SW7.2 kmh SW 10.1 mph16.3 kmh 30.13 in1020.3 mb 0.00 in0.0 mm 0.00 in0.0 mm 0.00 in0.0 mm
09:41 AM 71.8°F22.1°C 59.0°F15.0°C 64% Calm Calm 10.1 mph16.3 kmh 30.13 in1020.3 mb 0.00 in0.0 mm 0.00 in0.0 mm 0.00 in0.0 mm
09:56 AM 72.1°F22.3°C 59.7°F15.4°C 65% 0.7 mph ENE1.1 kmh ENE 7.6 mph12.2 kmh 30.14 in1020.7 mb 0.00 in0.0 mm 0.00 in0.0 mm 0.00 in0.0 mm
10:11 AM 72.5°F22.5°C 60.1°F15.6°C 65% 3.1 mph E5.0 kmh E 12.5 mph20.1 kmh 30.14 in1020.7 mb 0.00 in0.0 mm 0.00 in0.0 mm 0.00 in0.0 mm
10:26 AM 72.9°F22.7°C 61.3°F16.3°C 67% 4.7 mph SE7.6 kmh SE 15.0 mph24.1 kmh 30.14 in1020.7 mb 0.00 in0.0 mm 0.00 in0.0 mm 0.00 in0.0 mm
10:41 AM 72.5°F22.5°C 62.6°F17.0°C 71% 11.0 mph SE17.7 kmh SE 12.5 mph20.1 kmh 30.14 in1020.7 mb 0.00 in0.0 mm 0.00 in0.0 mm 0.00 in0.0 mm
10:56 AM 71.2°F21.8°C 62.1°F16.7°C 73% 2.9 mph ENE4.7 kmh ENE 12.5 mph20.1 kmh 30.14 in1020.7 mb 0.00 in0.0 mm 0.00 in0.0 mm 0.00 in0.0 mm
11:11 AM 70.9°F21.6°C 61.3°F16.3°C 72% 6.0 mph SE9.7 kmh SE 12.5 mph20.1 kmh 30.14 in1020.7 mb 0.00 in0.0 mm 0.00 in0.0 mm 0.00 in0.0 mm
11:26 AM 70.7°F21.5°C 62.4°F16.9°C 75% 3.8 mph SSE6.1 kmh SSE 12.5 mph20.1 kmh 30.14 in1020.7 mb 0.00 in0.0 mm 0.00 in0.0 mm 0.00 in0.0 mm
11:41 AM 70.0°F21.1°C 61.7°F16.5°C 75% 7.8 mph SE12.6 kmh SE 10.1 mph16.3 kmh 30.14 in1020.7 mb 0.00 in0.0 mm 0.00 in0.0 mm 0.00 in0.0 mm
11:56 AM 69.8°F21.0°C 61.9°F16.6°C 76% 2.2 mph S3.5 kmh S 10.1 mph16.3 kmh 30.14 in1020.7 mb 0.00 in0.0 mm 0.00 in0.0 mm 0.00 in0.0 mm
12:11 PM 69.4°F20.8°C 62.6°F17.0°C 79% 3.8 mph SSW6.1 kmh SSW 12.5 mph20.1 kmh 30.14 in1020.7 mb 0.00 in0.0 mm 0.00 in0.0 mm 0.00 in0.0 mm
12:26 PM 68.9°F20.5°C 62.1°F16.7°C 79% 3.1 mph SW5.0 kmh SW 10.1 mph16.3 kmh 30.14 in1020.7 mb 0.00 in0.0 mm 0.00 in0.0 mm 0.00 in0.0 mm
12:41 PM 68.7°F20.4°C 61.9°F16.6°C 79% 0.9 mph S1.4 kmh S 10.1 mph16.3 kmh 30.13 in1020.3 mb 0.00 in0.0 mm 0.00 in0.0 mm 0.00 in0.0 mm
12:57 PM 68.5°F20.3°C 62.1°F16.7°C 80% 4.7 mph SE7.6 kmh SE 10.1 mph16.3 kmh 30.13 in1020.3 mb 0.00 in0.0 mm 0.00 in0.0 mm 0.00 in0.0 mm
01:12 PM 68.2°F20.1°C 61.7°F16.5°C 80% 4.0 mph SSW6.4 kmh SSW 7.6 mph12.2 kmh 30.12 in1020.0 mb 0.00 in0.0 mm 0.00 in0.0 mm 0.00 in0.0 mm
01:27 PM 68.0°F20.0°C 61.9°F16.6°C 81% 2.5 mph SE4.0 kmh SE 7.6 mph12.2 kmh 30.12 in1020.0 mb 0.00 in0.0 mm 0.00 in0.0 mm 0.00 in0.0 mm
01:42 PM 67.8°F19.9°C 61.7°F16.5°C 81% 1.3 mph SE2.1 kmh SE 7.6 mph12.2 kmh 30.12 in1020.0 mb 0.00 in0.0 mm 0.00 in0.0 mm 0.00 in0.0 mm
01:57 PM 67.5°F19.7°C 61.7°F16.5°C 82% 3.4 mph SE5.5 kmh SE 7.6 mph12.2 kmh 30.11 in1019.6 mb 0.00 in0.0 mm 0.00 in0.0 mm 0.00 in0.0 mm
02:12 PM 67.3°F19.6°C 61.5°F16.4°C 82% 0.2 mph S0.3 kmh S 7.6 mph12.2 kmh 30.11 in1019.6 mb 0.00 in0.0 mm 0.00 in0.0 mm 0.00 in0.0 mm
02:27 PM 67.1°F19.5°C 61.3°F16.3°C 82% 0.2 mph S0.3 kmh S 7.6 mph12.2 kmh 30.11 in1019.6 mb 0.00 in0.0 mm 0.00 in0.0 mm 0.00 in0.0 mm
02:42 PM 67.1°F19.5°C 61.3°F16.3°C 82% 2.9 mph S4.7 kmh S 7.6 mph12.2 kmh 30.11 in1019.6 mb 0.00 in0.0 mm 0.00 in0.0 mm 0.00 in0.0 mm
02:57 PM 66.9°F19.4°C 61.2°F16.2°C 82% 3.4 mph SSW5.5 kmh SSW 4.9 mph7.9 kmh 30.11 in1019.6 mb 0.00 in0.0 mm 0.00 in0.0 mm 0.00 in0.0 mm
03:12 PM 66.9°F19.4°C 61.2°F16.2°C 82% Calm Calm 7.6 mph12.2 kmh 30.11 in1019.6 mb 0.00 in0.0 mm 0.00 in0.0 mm 0.00 in0.0 mm
03:27 PM 66.9°F19.4°C 61.0°F16.1°C 81% 2.2 mph S3.5 kmh S 7.6 mph12.2 kmh 30.10 in1019.3 mb 0.00 in0.0 mm 0.00 in0.0 mm 0.00 in0.0 mm
03:42 PM 66.9°F19.4°C 61.0°F16.1°C 81% 1.3 mph E2.1 kmh E 4.9 mph7.9 kmh 30.10 in1019.3 mb 0.00 in0.0 mm 0.00 in0.0 mm 0.00 in0.0 mm
03:57 PM 66.9°F19.4°C 60.6°F15.9°C 80% 1.8 mph E2.9 kmh E 7.6 mph12.2 kmh 30.10 in1019.3 mb 0.00 in0.0 mm 0.00 in0.0 mm 0.00 in0.0 mm
04:12 PM 67.1°F19.5°C 60.8°F16.0°C 80% 0.7 mph S1.1 kmh S 7.6 mph12.2 kmh 30.10 in1019.3 mb 0.00 in0.0 mm 0.00 in0.0 mm 0.00 in0.0 mm
04:27 PM 67.1°F19.5°C 60.8°F16.0°C 80% Calm Calm 7.6 mph12.2 kmh 30.10 in1019.3 mb 0.00 in0.0 mm 0.00 in0.0 mm 0.00 in0.0 mm
04:42 PM 67.1°F19.5°C 60.8°F16.0°C 80% 1.8 mph E2.9 kmh E 7.6 mph12.2 kmh 30.10 in1019.3 mb 0.00 in0.0 mm 0.00 in0.0 mm 0.00 in0.0 mm
04:58 PM 67.3°F19.6°C 61.0°F16.1°C 80% 4.0 mph SE6.4 kmh SE 7.6 mph12.2 kmh 30.10 in1019.3 mb 0.00 in0.0 mm 0.00 in0.0 mm 0.00 in0.0 mm
05:13 PM 67.1°F19.5°C 60.8°F16.0°C 80% 0.7 mph SSE1.1 kmh SSE 4.9 mph7.9 kmh 30.09 in1019.0 mb 0.00 in0.0 mm 0.00 in0.0 mm 0.00 in0.0 mm
05:28 PM 67.1°F19.5°C 61.3°F16.3°C 82% Calm Calm 7.6 mph12.2 kmh 30.09 in1019.0 mb 0.00 in0.0 mm 0.00 in0.0 mm 0.00 in0.0 mm
05:43 PM 66.9°F19.4°C 61.2°F16.2°C 82% 2.9 mph SE4.7 kmh SE 7.6 mph12.2 kmh 30.10 in1019.3 mb 0.00 in0.0 mm 0.00 in0.0 mm 0.00 in0.0 mm
05:58 PM 66.6°F19.2°C 61.2°F16.2°C 83% 4.5 mph SE7.2 kmh SE 7.6 mph12.2 kmh 30.10 in1019.3 mb 0.00 in0.0 mm 0.00 in0.0 mm 0.00 in0.0 mm
06:13 PM 66.4°F19.1°C 61.3°F16.3°C 84% Calm Calm 4.9 mph7.9 kmh 30.10 in1019.3 mb 0.00 in0.0 mm 0.00 in0.0 mm 0.00 in0.0 mm
06:28 PM 66.2°F19.0°C 61.2°F16.2°C 84% Calm Calm 4.9 mph7.9 kmh 30.10 in1019.3 mb 0.00 in0.0 mm 0.00 in0.0 mm 0.00 in0.0 mm
06:43 PM 66.2°F19.0°C 61.2°F16.2°C 84% 0.9 mph E1.4 kmh E 7.6 mph12.2 kmh 30.10 in1019.3 mb 0.00 in0.0 mm 0.00 in0.0 mm 0.00 in0.0 mm
06:58 PM 66.0°F18.9°C 60.6°F15.9°C 83% 2.2 mph SSE3.5 kmh SSE 4.9 mph7.9 kmh 30.10 in1019.3 mb 0.00 in0.0 mm 0.00 in0.0 mm 0.00 in0.0 mm
07:13 PM 66.0°F18.9°C 60.4°F15.8°C 82% 0.9 mph S1.4 kmh S 7.6 mph12.2 kmh 30.09 in1019.0 mb 0.00 in0.0 mm 0.00 in0.0 mm 0.00 in0.0 mm
07:28 PM 66.0°F18.9°C 60.4°F15.8°C 82% 2.2 mph SSW3.5 kmh SSW 4.9 mph7.9 kmh 30.10 in1019.3 mb 0.00 in0.0 mm 0.00 in0.0 mm 0.00 in0.0 mm
07:43 PM 65.8°F18.8°C 60.6°F15.9°C 83% 2.2 mph SE3.5 kmh SE 4.9 mph7.9 kmh 30.10 in1019.3 mb 0.00 in0.0 mm 0.00 in0.0 mm 0.00 in0.0 mm
07:58 PM 65.8°F18.8°C 60.6°F15.9°C 83% Calm Calm 2.5 mph4.0 kmh 30.09 in1019.0 mb 0.00 in0.0 mm 0.00 in0.0 mm 0.00 in0.0 mm
08:13 PM 65.7°F18.7°C 60.1°F15.6°C 82% Calm Calm 4.9 mph7.9 kmh 30.10 in1019.3 mb 0.00 in0.0 mm 0.00 in0.0 mm 0.00 in0.0 mm
08:28 PM 65.7°F18.7°C 60.1°F15.6°C 82% Calm Calm 4.9 mph7.9 kmh 30.10 in1019.3 mb 0.00 in0.0 mm 0.00 in0.0 mm 0.00 in0.0 mm
08:43 PM 65.5°F18.6°C 58.8°F14.9°C 79% 0.2 mph ESE0.3 kmh ESE 2.5 mph4.0 kmh 30.11 in1019.6 mb 0.00 in0.0 mm 0.00 in0.0 mm 0.00 in0.0 mm
08:58 PM 65.7°F18.7°C 59.4°F15.2°C 80% Calm Calm 2.5 mph4.0 kmh 30.11 in1019.6 mb 0.00 in0.0 mm 0.00 in0.0 mm 0.00 in0.0 mm
09:14 PM 65.7°F18.7°C 60.1°F15.6°C 82% Calm Calm 2.5 mph4.0 kmh 30.11 in1019.6 mb 0.00 in0.0 mm 0.00 in0.0 mm 0.00 in0.0 mm
09:29 PM 65.3°F18.5°C 59.7°F15.4°C 82% Calm Calm 2.5 mph4.0 kmh 30.11 in1019.6 mb 0.00 in0.0 mm 0.00 in0.0 mm 0.00 in0.0 mm
09:44 PM 64.8°F18.2°C 58.8°F14.9°C 81% 1.8 mph NNW2.9 kmh NNW 4.9 mph7.9 kmh 30.11 in1019.6 mb 0.00 in0.0 mm 0.00 in0.0 mm 0.00 in0.0 mm
09:59 PM 64.6°F18.1°C 58.3°F14.6°C 80% 1.6 mph NNW2.6 kmh NNW 4.9 mph7.9 kmh 30.11 in1019.6 mb 0.00 in0.0 mm 0.00 in0.0 mm 0.00 in0.0 mm
10:14 PM 64.4°F18.0°C 57.7°F14.3°C 79% 1.8 mph NW2.9 kmh NW 4.9 mph7.9 kmh 30.12 in1020.0 mb 0.00 in0.0 mm 0.00 in0.0 mm 0.00 in0.0 mm
10:29 PM 64.4°F18.0°C 57.7°F14.3°C 79% 0.7 mph NNW1.1 kmh NNW 4.9 mph7.9 kmh 30.11 in1019.6 mb 0.00 in0.0 mm 0.00 in0.0 mm 0.00 in0.0 mm
10:44 PM 64.4°F18.0°C 57.7°F14.3°C 79% 2.5 mph NNW4.0 kmh NNW 4.9 mph7.9 kmh 30.12 in1020.0 mb 0.00 in0.0 mm 0.00 in0.0 mm 0.00 in0.0 mm
10:59 PM 64.4°F18.0°C 57.4°F14.1°C 78% 3.4 mph N5.5 kmh N 7.6 mph12.2 kmh 30.12 in1020.0 mb 0.00 in0.0 mm 0.00 in0.0 mm 0.00 in0.0 mm
11:14 PM 64.6°F18.1°C 57.9°F14.4°C 79% Calm Calm 7.6 mph12.2 kmh 30.11 in1019.6 mb 0.00 in0.0 mm 0.00 in0.0 mm 0.00 in0.0 mm
11:29 PM 64.8°F18.2°C 58.1°F14.5°C 79% 2.5 mph NW4.0 kmh NW 4.9 mph7.9 kmh 30.11 in1019.6 mb 0.00 in0.0 mm 0.00 in0.0 mm 0.00 in0.0 mm
11:44 PM 64.8°F18.2°C 57.4°F14.1°C 77% 0.2 mph NW0.3 kmh NW 7.6 mph12.2 kmh 30.11 in1019.6 mb 0.00 in0.0 mm 0.00 in0.0 mm 0.00 in0.0 mm
11:59 PM 64.9°F18.3°C 57.6°F14.2°C 77% 4.9 mph NNW7.9 kmh NNW 7.6 mph12.2 kmh 30.11 in1019.6 mb 0.00 in0.0 mm 0.00 in0.0 mm 0.00 in0.0 mm